KPWTKCLM

Guest
Details From KPWT - Bremerton National
To KCLM - William R Fairchild Intl
Flight Number -
Tags Routegen
Created
Modified
Stats Distance 49 nm / 90 km
Max Altitude 0 ft / 0 m
Waypoints 2
Social Downloads 11
Likes 0
Share

Download

Looking for another format? Having issues loading an existing format? Contact us
Advertisement - Login to hide

Notes

None

Route

KPWT KCLM

ID Type Via Altitude (ft/m) Position (lat/lon) Dist (leg/tot) Name
O KPWT APT - 0 / 0 47.48333 / -122.77138 - / 0 nm
O KCLM APT - 0 / 0 48.12104 / -123.51152 48 / 48 nm

Altitude Profile

Advertisement - Login to hide

KPWT

Details ICAO KPWT (PWT)
Name Bremerton National
Region United States
Timezone America/Los_Angeles (UTC-8.0)
Stats Elevation 444 ft / 135 m (AMSL)
Location 47.490200° -122.765000°
Runways 1
Magnetic Variation 15.209° E

METAR

KPWT 041938Z AUTO 35004KT 10SM -RA OVC005 04/04 A3010 RMK AO2 P0000

Decode

TAF

TAF KPWT 041720Z 0418/0518 20007KT P6SM -RA SCT007 OVC015 TEMPO 0418/0422 3SM -RA BR BKN007 OVC015 FM050200 20007KT P6SM VCSH SCT012 BKN025 FM051000 20005KT P6SM OVC012 FM051700 20005KT P6SM BKN015

Decode

Departure Runways

ID Width Length Bearing (true/mag) Surface Threshold Overrun Markings Lighting
01 151 ft / 46 m 5,997 ft / 1,828 m 32.69° / 17.48° ASPHALT 0 ft / 0 m 0 ft / 0 m APP EDGE THRESHOLD
19 151 ft / 46 m 5,997 ft / 1,828 m 212.70° / 197.49° ASPHALT 0 ft / 0 m 1,243 ft / 379 m PREC-APP EDGE THRESHOLD MALSR

KCLM

Details ICAO KCLM (CLM)
Name WILLIAM R FAIRCHILD INTL
Region United States
Timezone America/Los_Angeles (UTC-8.0)
Stats Elevation 291 ft / 89 m (AMSL)
Location 48.120800° -123.500000°
Runways 2
Magnetic Variation 15.464° E

METAR

KCLM 041853Z AUTO 14003KT 10SM -RA SCT011 OVC042 04/02 A3010 RMK AO2 SLP193 P0000 T00390022

Decode

TAF

TAF KCLM 041720Z 0418/0518 VRB03KT 5SM -RA BR OVC010 FM042100 29008KT P6SM SCT006 OVC012 FM050100 29008KT P6SM SCT015 BKN030 FM051000 VRB03KT P6SM SCT005 SCT030 TEMPO 0512/0516 3SM BR BKN005 BKN030

Decode

Destination Runways

ID Width Length Bearing (true/mag) Surface Threshold Overrun Markings Lighting
08 151 ft / 46 m 6,353 ft / 1,936 m 104.61° / 89.15° ASPHALT 0 ft / 0 m 0 ft / 0 m PREC-APP EDGE THRESHOLD MALSR
13 49 ft / 15 m 3,244 ft / 989 m 147.64° / 132.17° ASPHALT 0 ft / 0 m 0 ft / 0 m APP EDGE THRESHOLD
26 151 ft / 46 m 6,353 ft / 1,936 m 284.63° / 269.17° ASPHALT 1,355 ft / 413 m 0 ft / 0 m APP EDGE THRESHOLD REIL-OMNI
31 49 ft / 15 m 3,244 ft / 989 m 327.64° / 312.18° ASPHALT 0 ft / 0 m 0 ft / 0 m APP EDGE THRESHOLD

Approach Navaids

Runway Type Ident Frequency Range Bearing (true/mag) Slope Elevation
08 MM MM - - 104.62° / 89.16 ° - 291 ft / 89 m (AMSL)
08 LOC-ILS ICLM 108.90 MHz 18 nm / 33 km 104.64° / 89.18 ° - 291 ft / 89 m (AMSL)
08 GS ICLM 108.90 MHz 10 nm / 19 km 105.25° / 89.78 ° 3.00° 281 ft / 86 m (AMSL)
08 OM OM - - 104.62° / 89.16 ° - 1,069 ft / 326 m (AMSL)

Popular Alternatives